Accueil
METAR-TAF:

METAR-TAF

Aéroports :

Aéroport international de Newcastle

Newcastle upon Tyne, Angleterre

latitude: 55-02N, longitude: 001-42W, altitude: 81 m

Observation

Le bulletin a été fait il y a 24 minutes, à 23:50 UTC
Vent 13 kt de ouest
Température 8°C
Humidité 81%
Pression 1031 hPa
Visibilité 10 km ou plus
Nuages fragmentés à une hauteur de 4800 ft

METAR: EGNT 262350Z 26013KT 9999 BKN048 08/05 Q1031

Heure: 00:14 (00:14 UTC)

Prévision

Le bulletin a été fait il y a 1 heure et 17 minutes, à 22:57 UTC
Prévision valable du 27 à 00 UTC au 27 à 24 UTC
Vent 12 kt de ouest
Visibilité 10 km ou plus
Nuages épars à une hauteur de 4000 ft
Probabilité 30% :
Temporairement
du 27 à 06 UTC au 27 à 18 UTC
Vent 15 kt de ouest avec des rafales jusqu'à 25 kt

TAF: EGNT 262257Z 2700/2724 27012KT 9999 SCT040 PROB30 TEMPO 2706/2718 28015G25KT

Observations et prévisions météorologiques de plus de 4000 aéroports (messages METAR et TAF).

Les stations disponibles sont représentées par des disques jaunes et rouges sur la carte.

Passer la souris dessus pour voir le nom de la station.

Cliquer dessus pour voir les observations et prévisions météorologiques.

Pour changer de carte: cliquez sur les boutons verts avec une croix noire pour zoomer, sur le bouton vert avec un tiret pour effectuer un zoom arrière, ou sur les flèches vertes pour les cartes adjacentes.


METAR-TAF: